Impacts TAF Board INFO
FOR SITUATIONAL AWARENESS. NOT TO BE USED FOR FLIGHT PLANNING PURPOSES.
IDs:

KLAX - Los Angeles Intl, CA, US

Issued at 1724 UTC 17 Jan 2018
Updated at 1956 UTC 17 Jan 2018
Potential Impact None Slight Moderate High
Time1953Z 17/20Z 17/21Z 17/22Z 17/23Z 18/00Z 18/01Z 18/02Z 18/03Z 18/04Z 18/05Z 18/06Z 18/07Z 18/08Z>>
Type OBS PRVL PRVL PRVL PRVL PRVL PRVL PRVL PRVL PRVL PRVL PRVL PRVL PRVL
VIS 8 >6 >6 >6 >6 >6 >6 >6 >6 >6 >6 >6 >6 >6
CIG 250 200 200 200 200 200 200 200 200 -- -- -- -- --
Cover BKN BKN BKN BKN BKN BKN BKN BKN BKN SCT SCT SCT SCT SCT
FltCat VFR VFR VFR VFR VFR VFR VFR VFR VFR VFR VFR VFR VFR VFR
WX -- -- -- -- -- -- -- -- -- -- -- -- -- --
WDir 260 270 270 270 270 270 270 270 270 VRB VRB VRB VRB VRB
WSpd 10 10 10 10 10 10 10 10 10 3 3 3 3 3
WGst -- -- -- -- -- -- -- -- -- -- -- -- -- --

Raw TAF
KLAX 171724Z 1718/1824 VRB03KT P6SM BKN200
  FM172000 27010KT P6SM BKN200
  FM180400 VRB03KT P6SM SCT200
  FM181300 VRB03KT 5SM BR SCT200
  FM181800 VRB03KT P6SM SCT200
  FM182000 27012KT P6SM SCT200


Raw METAR
KLAX 171953Z 26010KT 8SM FEW047 FEW120 SCT160 BKN250 20/13 A3015 RMK AO2 SLP210 T02000133 $
KLAX 171853Z 07003KT 7SM FEW045 FEW120 SCT160 BKN220 22/08 A3016 RMK AO2 SLP213 T02220078 $
KLAX 171753Z 07005KT 7SM FEW040 SCT120 SCT160 BKN200 19/09 A3018 RMK AO2 SLP219 T01940089 10194 20122 51010 $
KLAX 171653Z 00000KT 7SM FEW025 SCT120 SCT160 BKN200 18/10 A3017 RMK AO2 SLP215 T01780100 $

METAR Board
Radar Display
Forecast Discussion

FOR SITUATIONAL AWARENESS. NOT TO BE USED FOR FLIGHT PLANNING PURPOSES.